CheckWX is a tool to help pilots better visualize weather data.  It is not intended as a substitute for an official pre-flight weather briefing.

09:23:45 UTC

KAUM METAR
Austin Municipal Airport
Austin, Minnesota, USA
Current

9 mins ago

KAUM 210915Z AUTO 00000KT 10SM CLR M19/M21 A3052 RMK AO2
Observed
Jan-21 @ 09:15 UTC
Visibility
10 SM
Flight Rules
VFR
Cloud Levels
  • Clear skies
Temperature
-19°C / -2°F
Dewpoint
-21°C / -6°F
Humidity
84%
Altimeter
30.52" Hg
Pressure
1033.52 hPa
Previous

29 mins ago

KAUM 210855Z AUTO 00000KT 10SM CLR M18/M20 A3052 RMK AO2
Observed
Jan-21 @ 08:55 UTC
Visibility
10 SM
Flight Rules
VFR
Cloud Levels
  • Clear skies
Temperature
-18°C / -0°F
Dewpoint
-20°C / -4°F
Humidity
84%
Altimeter
30.52" Hg
Pressure
1033.52 hPa
Previous

49 mins ago

KAUM 210835Z AUTO 17003KT 10SM CLR M18/M21 A3052 RMK AO2
Observed
Jan-21 @ 08:35 UTC
Wind
  • 170° at 3 KTS
Visibility
10 SM
Flight Rules
VFR
Cloud Levels
  • Clear skies
Temperature
-18°C / -0°F
Dewpoint
-21°C / -6°F
Humidity
78%
Altimeter
30.52" Hg
Pressure
1033.52 hPa